Time;durP1;ratioP1;P1;durP2;ratioP2;P2;SDS_P1;SDS_P2;PMS_P1;PMS_P2;Temp;Humidity;BMP_temperature;BMP_pressure;BME280_temperature;BME280_humidity;BME280_pressure;Samples;Min_cycle;Max_cycle;Signal;HPM_P1;HPM_P2
2022/07/11 00:02:04;;;;;;;4.93;1.50;;;;;;;13.52;100.00;96836.47;5014820;28;20026;-80
2022/07/11 00:04:32;;;;;;;2.57;1.00;;;;;;;13.63;100.00;96836.97;5014599;28;20033;-77
2022/07/11 00:06:58;;;;;;;3.63;1.30;;;;;;;13.65;100.00;96828.88;5012270;28;20037;-77
2022/07/11 00:09:24;;;;;;;4.23;1.33;;;;;;;13.65;100.00;96834.19;5017539;28;20072;-80
2022/07/11 00:11:50;;;;;;;2.67;1.30;;;;;;;13.74;100.00;96832.34;5033334;28;20040;-81
2022/07/11 00:14:17;;;;;;;5.93;1.43;;;;;;;13.74;100.00;96827.06;5023362;28;20029;-81
2022/07/11 00:16:42;;;;;;;6.40;1.97;;;;;;;13.84;100.00;96827.72;5031693;28;20037;-80
2022/07/11 00:19:08;;;;;;;4.57;1.40;;;;;;;13.90;100.00;96829.72;5032202;28;20045;-79
2022/07/11 00:21:35;;;;;;;5.63;1.27;;;;;;;13.99;100.00;96823.44;5037957;28;20034;-79
2022/07/11 00:24:07;;;;;;;6.50;1.80;;;;;;;14.01;100.00;96828.56;5042618;28;20081;-76
2022/07/11 00:26:34;;;;;;;2.73;1.10;;;;;;;13.97;100.00;96829.88;5033113;28;20064;-79
2022/07/11 00:28:59;;;;;;;3.33;1.07;;;;;;;13.97;100.00;96822.78;5028975;28;20062;-80
2022/07/11 00:31:25;;;;;;;5.30;1.50;;;;;;;13.98;100.00;96831.53;5011001;28;20117;-78
2022/07/11 00:33:51;;;;;;;5.60;1.27;;;;;;;14.01;100.00;96829.38;5043588;28;20044;-80
2022/07/11 00:36:16;;;;;;;2.97;1.07;;;;;;;13.99;100.00;96830.56;5031743;28;20041;-80
2022/07/11 00:38:42;;;;;;;3.80;1.10;;;;;;;13.93;100.00;96820.63;5026523;28;20123;-80
2022/07/11 00:41:08;;;;;;;4.57;1.40;;;;;;;13.84;100.00;96825.91;5025170;28;20033;-80
2022/07/11 00:43:36;;;;;;;3.70;1.40;;;;;;;13.89;100.00;96826.25;5015455;28;20042;-81
2022/07/11 00:46:03;;;;;;;3.83;1.50;;;;;;;13.81;100.00;96826.22;5026374;28;20712;-81
2022/07/11 00:48:29;;;;;;;3.67;1.40;;;;;;;13.87;100.00;96816.81;5027255;28;20048;-81
2022/07/11 00:50:55;;;;;;;4.77;1.20;;;;;;;13.91;100.00;96812.84;5016330;28;20124;-80
2022/07/11 00:53:21;;;;;;;8.77;2.20;;;;;;;13.89;100.00;96812.22;5032272;28;20567;-81
2022/07/11 00:55:48;;;;;;;5.57;1.70;;;;;;;13.83;100.00;96816.34;5034109;28;20042;-78
2022/07/11 00:58:14;;;;;;;4.20;1.10;;;;;;;13.93;100.00;96810.88;5024350;28;20044;-79
2022/07/11 01:00:40;;;;;;;3.90;1.30;;;;;;;13.97;100.00;96811.38;5034354;28;20029;-75
2022/07/11 01:03:07;;;;;;;3.60;1.40;;;;;;;13.98;100.00;96813.00;5067114;28;20037;-79
2022/07/11 01:05:33;;;;;;;3.93;1.20;;;;;;;14.04;100.00;96815.81;4994717;28;20140;-79
2022/07/11 01:07:58;;;;;;;2.83;0.93;;;;;;;13.96;100.00;96813.19;5028567;28;20061;-80
2022/07/11 01:10:24;;;;;;;3.93;1.20;;;;;;;13.98;100.00;96815.66;5030518;28;20060;-78
2022/07/11 01:12:50;;;;;;;4.27;1.60;;;;;;;13.94;100.00;96809.06;5028910;28;20526;-76
2022/07/11 01:15:16;;;;;;;2.47;1.10;;;;;;;13.93;100.00;96807.41;5030519;28;20036;-80
2022/07/11 01:17:43;;;;;;;3.03;1.10;;;;;;;13.90;100.00;96805.91;5009694;28;20483;-80
2022/07/11 01:20:12;;;;;;;5.60;1.73;;;;;;;13.85;100.00;96809.06;5030838;28;20037;-80
2022/07/11 01:22:49;;;;;;;4.13;1.57;;;;;;;13.85;100.00;96803.78;5029630;28;20041;-80
2022/07/11 01:25:29;;;;;;;4.07;1.87;;;;;;;13.88;100.00;96808.75;5031450;28;20041;-80
2022/07/11 01:28:03;;;;;;;4.70;1.63;;;;;;;13.86;100.00;96805.44;5029591;28;20038;-80
2022/07/11 01:30:31;;;;;;;5.13;1.40;;;;;;;13.90;100.00;96800.63;5026891;28;20038;-78
2022/07/11 01:32:57;;;;;;;6.43;1.50;;;;;;;13.93;100.00;96802.94;5014790;28;20041;-79
2022/07/11 01:35:24;;;;;;;5.00;1.67;;;;;;;13.86;100.00;96794.84;5034660;28;20026;-77
2022/07/11 01:37:50;;;;;;;4.23;1.40;;;;;;;13.86;100.00;96794.84;5028945;28;20254;-79
2022/07/11 01:40:16;;;;;;;6.50;1.77;;;;;;;13.87;100.00;96801.78;5029851;28;20095;-80
2022/07/11 01:42:42;;;;;;;4.33;1.13;;;;;;;13.88;100.00;96795.53;5030452;28;20033;-78
2022/07/11 01:45:10;;;;;;;4.73;1.30;;;;;;;13.89;100.00;96799.00;5032143;28;20056;-79
2022/07/11 01:47:36;;;;;;;2.93;1.10;;;;;;;13.88;100.00;96792.03;5045693;28;20167;-80
2022/07/11 01:50:02;;;;;;;5.40;1.47;;;;;;;13.88;100.00;96794.66;5034187;28;20060;-79
2022/07/11 01:52:28;;;;;;;3.37;1.27;;;;;;;13.87;100.00;96785.09;5014402;28;20033;-77
2022/07/11 01:54:54;;;;;;;5.37;1.50;;;;;;;13.89;100.00;96794.53;5032215;28;20038;-79
2022/07/11 01:57:20;;;;;;;4.93;1.60;;;;;;;13.76;100.00;96788.91;5033922;28;20030;-80
2022/07/11 01:59:46;;;;;;;4.97;1.20;;;;;;;13.79;100.00;96793.03;5031955;28;20044;-80
2022/07/11 02:02:13;;;;;;;5.03;1.40;;;;;;;13.79;100.00;96793.03;5062683;28;20131;-80
2022/07/11 02:04:40;;;;;;;7.17;1.60;;;;;;;13.83;100.00;96791.72;5016395;28;20113;-79
2022/07/11 02:07:05;;;;;;;4.00;1.57;;;;;;;13.81;100.00;96780.47;5036874;28;20038;-75
2022/07/11 02:09:31;;;;;;;6.27;1.67;;;;;;;13.81;100.00;96783.94;5031912;28;20117;-78
2022/07/11 02:11:57;;;;;;;4.33;1.50;;;;;;;13.79;100.00;96783.28;5034347;28;20449;-79
2022/07/11 02:14:23;;;;;;;4.33;1.50;;;;;;;13.69;100.00;96790.56;5022562;28;20064;-80
2022/07/11 02:16:48;;;;;;;3.67;1.30;;;;;;;13.76;100.00;96791.56;5015824;28;20033;-78
2022/07/11 02:19:15;;;;;;;6.33;1.60;;;;;;;13.75;100.00;96794.34;5035913;28;20581;-80
2022/07/11 02:21:42;;;;;;;3.30;1.40;;;;;;;13.74;100.00;96785.59;5023124;28;20033;-79
2022/07/11 02:24:08;;;;;;;3.10;1.30;;;;;;;13.82;100.00;96787.44;5023285;28;20045;-78
2022/07/11 02:26:34;;;;;;;3.57;1.57;;;;;;;13.85;100.00;96789.75;5021453;28;20033;-78
2022/07/11 02:29:00;;;;;;;8.47;1.70;;;;;;;13.82;100.00;96788.25;5021112;28;20029;-79
2022/07/11 02:31:26;;;;;;;4.37;1.30;;;;;;;13.80;100.00;96795.50;5041824;28;20044;-80
2022/07/11 02:33:51;;;;;;;4.20;1.40;;;;;;;13.77;100.00;96784.44;5024886;28;20689;-80
2022/07/11 02:36:17;;;;;;;4.00;1.70;;;;;;;13.72;100.00;96786.78;5022430;28;20584;-80
2022/07/11 02:38:43;;;;;;;4.00;1.50;;;;;;;13.77;100.00;96785.25;5027023;28;20415;-80
2022/07/11 02:41:09;;;;;;;4.93;1.70;;;;;;;13.77;100.00;96787.09;5043081;28;20028;-80
2022/07/11 02:43:34;;;;;;;3.90;1.73;;;;;;;13.75;100.00;96784.63;5044917;28;20033;-78
2022/07/11 02:46:00;;;;;;;4.40;1.70;;;;;;;13.79;100.00;96787.75;5041590;28;20030;-80
2022/07/11 02:48:26;;;;;;;4.27;1.77;;;;;;;13.69;100.00;96785.28;5015626;28;20503;-80
2022/07/11 02:50:52;;;;;;;5.77;1.73;;;;;;;13.73;100.00;96783.13;5031909;28;20098;-79
2022/07/11 02:53:18;;;;;;;3.33;1.40;;;;;;;13.67;100.00;96774.03;5041537;28;20033;-80
2022/07/11 02:55:43;;;;;;;5.07;1.57;;;;;;;13.62;100.00;96779.00;5019241;28;20037;-79
2022/07/11 02:58:09;;;;;;;4.03;1.70;;;;;;;13.72;100.00;96781.47;5034137;28;20033;-79
2022/07/11 03:00:35;;;;;;;5.40;1.70;;;;;;;13.60;100.00;96783.63;5033625;28;20029;-79
2022/07/11 03:03:01;;;;;;;3.90;1.40;;;;;;;13.52;100.00;96781.81;5032278;28;20259;-80
2022/07/11 03:05:27;;;;;;;9.33;1.57;;;;;;;13.50;100.00;96781.13;5032869;28;20038;-80
2022/07/11 03:07:53;;;;;;;6.80;1.50;;;;;;;13.55;100.00;96775.38;5039684;28;20586;-80
2022/07/11 03:10:19;;;;;;;5.87;1.60;;;;;;;13.52;100.00;96779.16;5022458;28;20043;-80
2022/07/11 03:12:45;;;;;;;3.83;1.37;;;;;;;13.58;100.00;96775.88;5038199;28;20391;-79
2022/07/11 03:15:11;;;;;;;4.53;1.50;;;;;;;13.63;100.00;96778.00;5022861;28;20437;-78
2022/07/11 03:17:37;;;;;;;5.20;1.60;;;;;;;13.63;100.00;96783.28;5028728;28;20125;-80
2022/07/11 03:20:05;;;;;;;4.10;1.20;;;;;;;13.54;100.00;96781.63;5016501;28;20116;-79
2022/07/11 03:22:31;;;;;;;4.43;1.40;;;;;;;13.60;100.00;96780.97;5037962;28;20036;-80
2022/07/11 03:24:56;;;;;;;6.47;1.60;;;;;;;13.53;100.00;96783.44;5025224;28;20033;-78
2022/07/11 03:27:22;;;;;;;4.57;1.27;;;;;;;13.63;100.00;96780.66;5039054;28;20041;-78
2022/07/11 03:29:48;;;;;;;5.20;1.33;;;;;;;13.63;100.00;96780.66;5015321;28;20463;-79
2022/07/11 03:32:14;;;;;;;3.73;1.93;;;;;;;13.62;100.00;96781.66;5016068;28;20036;-80
2022/07/11 03:34:40;;;;;;;4.73;1.80;;;;;;;13.68;100.00;96779.16;5032515;28;20040;-77
2022/07/11 03:37:06;;;;;;;8.27;1.93;;;;;;;13.66;100.00;96781.13;5034101;28;20025;-77
2022/07/11 03:39:32;;;;;;;3.77;1.63;;;;;;;13.73;100.00;96785.78;5029275;28;20548;-80
2022/07/11 03:41:58;;;;;;;5.97;1.43;;;;;;;13.58;100.00;96778.50;5034610;28;20030;-80
2022/07/11 03:44:24;;;;;;;5.07;1.57;;;;;;;13.51;100.00;96779.31;5024412;28;20041;-79
2022/07/11 03:46:50;;;;;;;4.60;1.30;;;;;;;13.60;100.00;96775.69;5036697;28;20375;-79
2022/07/11 03:49:16;;;;;;;7.83;1.80;;;;;;;13.57;100.00;96783.94;5038009;28;20037;-78
2022/07/11 03:51:42;;;;;;;6.33;1.60;;;;;;;13.58;100.00;96775.00;5033254;28;20804;-78
2022/07/11 03:54:08;;;;;;;9.10;2.13;;;;;;;13.63;100.00;96780.66;5038245;28;20133;-80
2022/07/11 03:56:34;;;;;;;8.27;1.33;;;;;;;13.68;100.00;96770.38;5039595;28;20449;-78
2022/07/11 03:59:00;;;;;;;3.90;1.43;;;;;;;13.59;100.00;96776.69;5030629;28;20072;-80
2022/07/11 04:01:25;;;;;;;4.33;1.47;;;;;;;13.60;100.00;96780.97;5022625;28;20063;-80
2022/07/11 04:03:51;;;;;;;6.83;1.40;;;;;;;13.62;100.00;96784.28;5033731;28;20045;-78
2022/07/11 04:06:17;;;;;;;8.33;3.53;;;;;;;13.70;100.00;96786.09;5019060;28;20025;-80
2022/07/11 04:08:42;;;;;;;5.93;2.03;;;;;;;13.53;100.00;96790.56;5037722;28;20685;-80
2022/07/11 04:11:08;;;;;;;4.80;1.97;;;;;;;13.67;100.00;96789.88;5044031;28;20041;-77
2022/07/11 04:13:34;;;;;;;2.73;1.57;;;;;;;13.57;100.00;96784.75;5020884;28;20029;-79
2022/07/11 04:16:00;;;;;;;6.57;1.60;;;;;;;13.59;100.00;96785.44;5031208;28;20037;-79
2022/07/11 04:18:26;;;;;;;3.97;1.40;;;;;;;13.57;100.00;96781.28;5038026;28;20033;-79
2022/07/11 04:20:51;;;;;;;5.23;1.70;;;;;;;13.68;100.00;96787.09;5037150;28;20091;-79
2022/07/11 04:23:17;;;;;;;6.63;1.90;;;;;;;13.69;100.00;96793.22;5026830;28;20040;-79
2022/07/11 04:25:43;;;;;;;11.23;2.40;;;;;;;13.62;100.00;96786.94;5031179;28;20057;-77
2022/07/11 04:28:09;;;;;;;6.27;1.77;;;;;;;13.65;100.00;96791.88;5019056;28;20060;-74
2022/07/11 04:30:34;;;;;;;3.77;1.10;;;;;;;13.64;100.00;96792.84;5033971;28;20097;-76
2022/07/11 04:33:01;;;;;;;3.53;1.30;;;;;;;13.70;100.00;96791.38;5033878;28;20039;-74
2022/07/11 04:35:27;;;;;;;3.53;1.37;;;;;;;13.59;100.00;96795.19;5036391;28;20064;-79
2022/07/11 04:37:54;;;;;;;6.10;2.20;;;;;;;13.69;100.00;96790.56;5039240;28;20104;-76
2022/07/11 04:40:23;;;;;;;3.67;2.33;;;;;;;13.71;100.00;96795.66;5037756;28;20025;-80
2022/07/11 04:42:50;;;;;;;4.77;1.50;;;;;;;13.70;100.00;96799.31;5026598;28;20025;-76
2022/07/11 04:45:16;;;;;;;7.23;1.80;;;;;;;13.72;100.00;96792.88;5018701;28;20418;-77
2022/07/11 04:47:42;;;;;;;7.10;1.77;;;;;;;13.73;100.00;96793.69;5016559;28;20047;-78
2022/07/11 04:50:08;;;;;;;5.67;1.87;;;;;;;13.73;100.00;96799.00;5014485;28;20037;-74
2022/07/11 04:52:34;;;;;;;3.10;1.70;;;;;;;13.80;100.00;96797.34;5032771;28;20044;-77
2022/07/11 04:55:00;;;;;;;5.83;1.87;;;;;;;13.79;100.00;96796.50;5033117;28;20034;-78
2022/07/11 04:57:27;;;;;;;4.07;2.00;;;;;;;13.79;100.00;96793.03;5036775;28;20025;-77
2022/07/11 04:59:52;;;;;;;5.50;1.97;;;;;;;13.80;100.00;96790.22;5018229;28;20031;-79
2022/07/11 05:02:18;;;;;;;4.53;1.77;;;;;;;13.88;100.00;96782.31;5033514;28;20033;-78
2022/07/11 05:04:45;;;;;;;8.43;2.20;;;;;;;13.99;100.00;96783.78;5037971;28;20048;-75
2022/07/11 05:07:13;;;;;;;9.10;1.77;;;;;;;14.01;100.00;96783.59;5030786;28;20041;-76
2022/07/11 05:09:39;;;;;;;5.50;1.70;;;;;;;14.15;100.00;96788.19;5019543;28;20041;-77
2022/07/11 05:12:06;;;;;;;4.77;1.80;;;;;;;14.09;100.00;96788.88;5032423;28;20367;-75
2022/07/11 05:14:32;;;;;;;5.37;2.03;;;;;;;14.17;100.00;96790.69;5034946;28;20036;-77
2022/07/11 05:16:58;;;;;;;4.07;1.67;;;;;;;14.32;100.00;96794.31;5035310;28;20387;-79
2022/07/11 05:19:23;;;;;;;4.10;1.63;;;;;;;14.36;100.00;96787.69;5032063;28;20060;-77
2022/07/11 05:21:49;;;;;;;5.07;1.67;;;;;;;14.53;100.00;96785.84;5034065;28;20033;-79
2022/07/11 05:24:15;;;;;;;6.27;1.70;;;;;;;14.59;100.00;96783.34;5032921;28;20053;-77
2022/07/11 05:26:42;;;;;;;4.53;1.60;;;;;;;14.57;100.00;96793.25;5032569;28;20099;-77
2022/07/11 05:29:08;;;;;;;3.87;1.67;;;;;;;14.73;100.00;96786.28;5026504;28;20073;-76
2022/07/11 05:31:33;;;;;;;6.63;1.80;;;;;;;14.82;100.00;96795.81;5021625;28;20025;-79
2022/07/11 05:33:59;;;;;;;6.20;2.20;;;;;;;14.81;100.00;96789.69;5033575;28;20037;-77
2022/07/11 05:36:25;;;;;;;5.00;2.00;;;;;;;14.94;100.00;96793.63;5040911;28;20580;-80
2022/07/11 05:38:50;;;;;;;5.43;2.00;;;;;;;15.08;100.00;96791.06;5021425;28;20080;-79
2022/07/11 05:41:16;;;;;;;4.23;1.50;;;;;;;15.13;100.00;96802.97;5036348;28;20034;-79
2022/07/11 05:43:43;;;;;;;4.40;1.67;;;;;;;15.22;100.00;96799.25;5038926;28;20509;-78
2022/07/11 05:46:08;;;;;;;7.07;2.20;;;;;;;15.08;100.00;96799.00;5034133;28;20064;-79
2022/07/11 05:48:34;;;;;;;2.27;1.40;;;;;;;15.23;100.00;96799.09;5035674;28;20540;-78
2022/07/11 05:51:00;;;;;;;5.20;1.87;;;;;;;15.04;100.00;96797.69;5034719;28;20037;-77
2022/07/11 05:53:25;;;;;;;4.20;1.60;;;;;;;15.11;100.00;96800.47;5066042;28;20033;-79
2022/07/11 05:55:51;;;;;;;4.57;1.63;;;;;;;15.18;100.00;96809.38;5038446;28;20456;-81
2022/07/11 05:58:17;;;;;;;5.37;1.50;;;;;;;15.32;100.00;96802.50;5025044;28;20029;-76
2022/07/11 06:00:42;;;;;;;4.23;1.57;;;;;;;15.21;100.00;96805.56;5039970;28;20053;-81
2022/07/11 06:03:08;;;;;;;4.70;1.83;;;;;;;15.43;100.00;96806.63;5037605;28;20096;-80
2022/07/11 06:05:34;;;;;;;3.00;1.50;;;;;;;15.36;100.00;96808.28;5030425;28;20032;-78
2022/07/11 06:10:44;;;;;;;3.80;1.67;;;;;;;15.50;100.00;96799.59;5040054;28;20029;-80
2022/07/11 06:13:13;;;;;;;2.70;1.47;;;;;;;15.52;100.00;96802.88;5046855;28;20076;-80
2022/07/11 06:15:38;;;;;;;5.27;1.77;;;;;;;15.42;100.00;96805.75;5051405;28;20041;-80
2022/07/11 06:18:04;;;;;;;5.73;1.60;;;;;;;15.49;100.00;96804.09;5031406;28;20132;-77
2022/07/11 06:20:31;;;;;;;3.58;1.52;;;;;;;15.57;100.00;96805.84;5042298;28;20040;-78
2022/07/11 06:22:56;;;;;;;4.13;1.70;;;;;;;15.86;100.00;96809.63;5022400;28;20132;-80
2022/07/11 06:25:22;;;;;;;5.00;1.40;;;;;;;15.83;100.00;96807.31;5039689;28;20105;-74
2022/07/11 06:27:48;;;;;;;2.55;1.52;;;;;;;16.08;100.00;96803.47;5041604;28;20045;-80
2022/07/11 06:30:14;;;;;;;4.10;1.58;;;;;;;16.09;100.00;96810.41;5025340;28;20048;-76
2022/07/11 06:32:39;;;;;;;3.28;1.55;;;;;;;16.17;100.00;96798.94;5026130;28;20041;-78
2022/07/11 06:35:07;;;;;;;6.18;1.80;;;;;;;16.26;100.00;96806.63;5036855;28;20040;-80
2022/07/11 06:37:33;;;;;;;3.83;1.80;;;;;;;16.11;100.00;96812.91;5018757;28;20065;-80
2022/07/11 06:39:59;;;;;;;4.97;1.65;;;;;;;16.30;100.00;96811.56;5044661;28;20044;-76
2022/07/11 06:42:24;;;;;;;3.70;1.88;;;;;;;16.27;100.00;96815.41;5036519;28;20044;-80
2022/07/11 06:44:54;;;;;;;3.97;1.50;;;;;;;16.40;100.00;96812.16;5037848;28;20025;-79
2022/07/11 06:47:20;;;;;;;4.07;1.80;;;;;;;16.62;100.00;96808.56;5063548;28;20519;-79
2022/07/11 06:49:45;;;;;;;5.25;1.90;;;;;;;16.72;100.00;96809.13;5035799;28;20052;-80
2022/07/11 06:52:11;;;;;;;4.22;1.63;;;;;;;16.79;100.00;96805.75;5037159;28;20025;-78
2022/07/11 06:54:37;;;;;;;4.18;1.52;;;;;;;16.76;100.00;96806.13;5037459;28;20037;-80
2022/07/11 06:57:03;;;;;;;4.32;1.60;;;;;;;16.89;100.00;96801.00;5042720;28;20033;-77
2022/07/11 06:59:28;;;;;;;3.97;1.70;;;;;;;17.10;100.00;96802.88;5041232;28;20030;-81
2022/07/11 07:01:54;;;;;;;5.53;1.90;;;;;;;17.03;100.00;96804.63;5050314;28;20457;-78
2022/07/11 07:04:20;;;;;;;4.07;1.70;;;;;;;17.23;100.00;96804.88;5068281;28;20029;-80
2022/07/11 07:06:46;;;;;;;4.43;1.75;;;;;;;17.39;100.00;96807.31;5020546;28;20043;-80
2022/07/11 07:09:13;;;;;;;5.88;2.10;;;;;;;17.18;100.00;96805.44;5027935;28;20170;-79
2022/07/11 07:11:38;;;;;;;3.65;1.77;;;;;;;17.37;100.00;96804.00;5037036;28;20044;-80
2022/07/11 07:14:04;;;;;;;4.07;1.90;;;;;;;17.45;100.00;96811.88;5018390;28;20096;-81
2022/07/11 07:16:30;;;;;;;3.90;1.85;;;;;;;17.56;100.00;96807.91;5039422;28;20039;-79
2022/07/11 07:18:56;;;;;;;3.67;1.80;;;;;;;17.45;100.00;96811.88;5033740;28;20036;-74
2022/07/11 07:21:21;;;;;;;4.85;2.05;;;;;;;17.29;100.00;96807.59;5035300;28;20533;-80
2022/07/11 07:23:47;;;;;;;4.07;2.10;;;;;;;17.24;100.00;96807.38;5022616;28;20033;-79
2022/07/11 07:26:13;;;;;;;5.35;1.77;;;;;;;17.59;100.00;96810.19;5033814;28;20103;-78
2022/07/11 07:28:39;;;;;;;6.82;1.77;;;;;;;17.60;100.00;96814.47;5033401;28;20037;-79
2022/07/11 07:31:06;;;;;;;2.95;1.50;;;;;;;18.25;100.00;96817.97;5023026;28;20139;-79
2022/07/11 07:33:32;;;;;;;4.00;1.90;;;;;;;18.10;100.00;96818.88;5042676;28;20036;-80
2022/07/11 07:35:57;;;;;;;2.78;1.67;;;;;;;18.17;100.00;96824.25;5031061;28;20115;-79
2022/07/11 07:38:23;;;;;;;4.35;1.83;;;;;;;18.22;100.00;96816.50;5038455;28;20047;-78
2022/07/11 07:40:49;;;;;;;2.70;1.55;;;;;;;18.42;100.00;96819.34;5031878;28;20116;-79
2022/07/11 07:43:14;;;;;;;4.57;1.90;;;;;;;18.52;100.00;96819.81;5033983;28;20546;-78
2022/07/11 07:45:40;;;;;;;4.65;1.30;;;;;;;18.44;100.00;96821.78;5037486;28;20108;-80
2022/07/11 07:48:06;;;;;;;3.55;1.55;;;;;;;18.89;98.47;96809.81;5039664;28;20057;-80
2022/07/11 07:50:32;;;;;;;10.55;9.20;;;;;;;18.82;99.72;96814.28;5033463;28;20025;-80
2022/07/11 07:52:58;;;;;;;3.70;1.88;;;;;;;18.82;97.59;96811.63;5030511;28;20116;-80
2022/07/11 07:55:24;;;;;;;5.60;1.92;;;;;;;18.91;100.00;96807.75;5049927;28;20032;-76
2022/07/11 07:57:49;;;;;;;4.65;1.95;;;;;;;18.80;99.62;96810.97;5053089;28;20025;-76
2022/07/11 08:03:08;;;;;;;4.95;1.40;;;;;;;19.41;96.08;96810.22;5036425;28;20098;-75
2022/07/11 08:05:33;;;;;;;4.15;1.70;;;;;;;19.21;96.60;96808.28;5013397;28;20055;-78
2022/07/11 08:07:59;;;;;;;8.40;1.85;;;;;;;19.44;96.59;96813.28;5036853;28;20038;-80
2022/07/11 08:10:25;;;;;;;3.65;1.30;;;;;;;19.36;94.00;96810.81;5025255;28;20061;-75
2022/07/11 08:12:51;;;;;;;3.13;1.60;;;;;;;19.61;95.45;96807.59;5039938;28;20037;-76
2022/07/11 08:15:16;;;;;;;2.38;1.35;;;;;;;19.34;92.95;96810.19;5045066;28;20048;-78
2022/07/11 08:17:42;;;;;;;1.98;1.45;;;;;;;19.51;93.63;96813.31;5032460;28;20447;-79
2022/07/11 08:20:08;;;;;;;2.67;1.20;;;;;;;19.51;91.00;96807.97;5014545;28;20040;-76
2022/07/11 08:22:34;;;;;;;3.28;1.00;;;;;;;19.53;92.95;96806.75;5033900;28;20072;-78
2022/07/11 08:25:00;;;;;;;2.05;1.33;;;;;;;19.92;91.75;96802.56;5007677;28;20759;-79
2022/07/11 08:27:26;;;;;;;1.83;1.35;;;;;;;20.02;90.80;96789.63;5027382;28;20502;-80
2022/07/11 08:29:51;;;;;;;3.05;1.17;;;;;;;19.99;87.92;96799.91;5030923;28;20108;-79
2022/07/11 08:32:17;;;;;;;2.33;0.90;;;;;;;20.26;85.70;96795.38;5047791;28;20147;-80
2022/07/11 08:34:45;;;;;;;2.10;1.13;;;;;;;20.37;81.39;96789.38;5039065;28;20066;-80
2022/07/11 08:37:11;;;;;;;3.63;1.40;;;;;;;20.07;86.32;96796.19;5037322;28;20045;-78
2022/07/11 08:39:37;;;;;;;2.28;1.13;;;;;;;20.27;80.23;96791.66;5030527;28;20059;-80
2022/07/11 08:42:02;;;;;;;1.25;1.10;;;;;;;20.35;81.23;96793.28;5039299;28;20041;-77
2022/07/11 08:44:28;;;;;;;2.13;1.05;;;;;;;19.64;85.70;96799.22;5029493;28;20032;-79
2022/07/11 08:46:56;;;;;;;1.85;1.20;;;;;;;19.85;86.67;96792.88;5022657;28;20120;-80
2022/07/11 08:49:22;;;;;;;2.28;1.13;;;;;;;20.05;89.51;96792.91;5036629;28;20033;-80
2022/07/11 08:51:48;;;;;;;2.60;1.40;;;;;;;20.10;85.68;96785.91;5027396;28;20061;-81
2022/07/11 08:54:14;;;;;;;1.60;1.13;;;;;;;20.15;84.81;96794.13;5072262;28;20076;-79
2022/07/11 08:56:43;;;;;;;1.60;1.30;;;;;;;20.66;83.52;96784.66;5036162;28;20029;-79
2022/07/11 08:59:10;;;;;;;2.67;1.20;;;;;;;21.21;77.70;96784.25;5013633;28;20033;-79
2022/07/11 09:01:43;;;;;;;2.63;1.50;;;;;;;21.55;77.12;96788.44;5031741;28;20036;-78
2022/07/11 09:04:08;;;;;;;5.25;2.75;;;;;;;21.92;71.79;96789.41;5020210;28;20049;-79
2022/07/11 09:06:35;;;;;;;3.33;1.58;;;;;;;21.56;71.89;96790.91;5031970;28;20025;-79
2022/07/11 09:09:02;;;;;;;1.85;1.30;;;;;;;21.73;69.96;96801.91;5031625;28;20045;-79
2022/07/11 09:11:47;;;;;;;4.18;1.33;;;;;;;21.64;75.62;96789.81;5027683;28;20053;-78
2022/07/11 09:14:22;;;;;;;2.05;1.27;;;;;;;21.95;71.19;96794.34;5034071;28;20041;-78
2022/07/11 09:16:58;;;;;;;1.75;1.55;;;;;;;21.67;70.18;96791.25;5033062;28;20029;-79
2022/07/11 09:19:25;;;;;;;3.03;1.50;;;;;;;21.79;73.26;96787.66;5019826;28;20033;-79
2022/07/11 09:25:31;;;;;;;2.15;1.25;;;;;;;22.14;69.17;96784.53;5031520;28;20068;-79
2022/07/11 09:28:04;;;;;;;1.42;1.20;;;;;;;21.87;69.34;96787.41;5036163;28;20052;-79
2022/07/11 09:30:31;;;;;;;1.40;1.27;;;;;;;21.71;73.82;96787.91;5037950;28;20100;-79
2022/07/11 09:32:58;;;;;;;2.50;1.25;;;;;;;22.00;70.29;96782.97;5039333;28;20045;-79
2022/07/11 09:35:32;;;;;;;2.72;1.38;;;;;;;21.80;73.71;96783.13;5024871;28;20108;-78
2022/07/11 09:38:01;;;;;;;2.25;1.15;;;;;;;21.68;69.37;96780.31;5043629;28;20048;-79
2022/07/11 09:40:27;;;;;;;2.50;1.30;;;;;;;21.01;74.81;96779.81;5042525;28;20040;-79
2022/07/11 09:42:55;;;;;;;1.35;1.10;;;;;;;21.15;74.54;96778.72;5014766;28;20628;-79
2022/07/11 09:45:27;;;;;;;2.50;1.65;;;;;;;21.25;78.61;96780.94;5028122;28;20025;-79
2022/07/11 09:47:55;;;;;;;1.83;1.30;;;;;;;21.30;74.27;96783.81;5064941;28;20030;-79
2022/07/11 09:50:27;;;;;;;1.73;1.20;;;;;;;21.12;77.66;96784.47;5029692;28;20029;-79
2022/07/11 09:53:08;;;;;;;2.45;1.48;;;;;;;21.30;75.70;96783.81;5034961;28;20045;-79
2022/07/11 09:55:40;;;;;;;2.45;1.50;;;;;;;21.37;79.31;96789.97;5032445;28;20486;-79
2022/07/11 09:58:09;;;;;;;2.70;1.73;;;;;;;21.53;76.73;96793.16;5036090;28;20148;-79
2022/07/11 10:00:36;;;;;;;2.75;1.75;;;;;;;20.71;81.29;96792.84;5031704;28;20037;-80
2022/07/11 10:03:03;;;;;;;1.60;1.35;;;;;;;21.31;73.51;96790.78;5037278;28;20067;-80
2022/07/11 10:05:30;;;;;;;3.67;1.65;;;;;;;21.02;73.64;96788.66;5022550;28;20030;-80
2022/07/11 10:08:00;;;;;;;3.80;1.85;;;;;;;21.68;75.55;96779.50;5039335;28;20644;-80
2022/07/11 10:10:27;;;;;;;3.10;1.27;;;;;;;22.40;72.32;96785.34;5034120;28;20372;-79
2022/07/11 10:12:54;;;;;;;3.03;1.58;;;;;;;23.05;65.43;96780.34;5031529;28;20117;-80
2022/07/11 10:15:44;;;;;;;2.65;1.70;;;;;;;22.87;65.11;96785.69;5044559;28;20033;-78
2022/07/11 10:18:31;;;;;;;4.47;1.70;;;;;;;22.99;64.15;96781.25;5035353;28;20041;-78
2022/07/11 10:21:09;;;;;;;2.80;1.48;;;;;;;22.31;68.35;96793.66;5030807;28;20038;-78
2022/07/11 10:24:02;;;;;;;3.40;1.67;;;;;;;21.87;70.66;96792.75;5045578;28;20045;-78
2022/07/11 10:26:38;;;;;;;2.30;1.52;;;;;;;22.20;69.97;96790.88;5033325;28;20474;-77
2022/07/11 10:29:20;;;;;;;1.83;1.40;;;;;;;22.00;70.83;96794.53;5017608;28;20045;-78
2022/07/11 10:32:11;;;;;;;1.80;1.40;;;;;;;22.08;71.68;96793.41;5032134;28;20479;-78
2022/07/11 10:34:39;;;;;;;1.80;1.35;;;;;;;22.38;65.95;96793.63;5025643;28;20056;-78
2022/07/11 10:37:08;;;;;;;2.55;1.27;;;;;;;22.64;62.82;96791.72;5023263;28;20557;-77
2022/07/11 10:39:36;;;;;;;2.22;1.58;;;;;;;22.09;68.50;96790.50;5043147;28;20071;-78
2022/07/11 10:42:06;;;;;;;2.53;1.45;;;;;;;21.69;76.74;96800.69;5016214;28;20076;-78
2022/07/11 10:44:49;;;;;;;2.63;1.55;;;;;;;21.52;76.18;96795.03;5031724;28;20018;-79
2022/07/11 10:47:38;;;;;;;2.72;1.70;;;;;;;21.72;73.79;96810.97;5031161;28;20063;-78
2022/07/11 10:50:49;;;;;;;2.70;1.60;;;;;;;21.71;73.21;96803.97;5049852;28;20462;-79
2022/07/11 10:53:22;;;;;;;2.58;1.75;;;;;;;21.82;74.05;96808.63;5029727;28;20059;-78
2022/07/11 10:56:08;;;;;;;4.07;1.75;;;;;;;21.68;74.58;96804.41;5046947;28;20040;-79
2022/07/11 10:58:43;;;;;;;3.00;1.50;;;;;;;21.44;73.74;96794.47;5051467;28;20387;-79
2022/07/11 11:01:14;;;;;;;3.63;1.50;;;;;;;21.53;73.50;96796.69;5027226;28;20054;-79
2022/07/11 11:03:41;;;;;;;3.75;1.80;;;;;;;21.87;72.00;96797.28;5029046;28;20032;-78
2022/07/11 11:06:07;;;;;;;2.72;1.55;;;;;;;22.28;67.79;96791.44;5035137;28;20398;-78
2022/07/11 11:08:34;;;;;;;2.40;1.65;;;;;;;22.04;66.98;96784.19;5041810;28;20029;-78
2022/07/11 11:11:01;;;;;;;2.70;1.80;;;;;;;22.29;65.84;96785.03;5033289;28;20033;-79
2022/07/11 11:13:31;;;;;;;2.90;1.73;;;;;;;22.50;61.39;96786.50;5034229;28;20388;-78
2022/07/11 11:15:59;;;;;;;1.80;1.10;;;;;;;22.61;61.65;96787.63;5033572;28;20479;-78
2022/07/11 11:18:25;;;;;;;2.97;1.75;;;;;;;22.56;63.59;96784.78;5029531;28;20103;-79
2022/07/11 11:21:00;;;;;;;2.78;1.80;;;;;;;22.90;61.14;96786.06;5014115;28;20503;-78
2022/07/11 11:23:34;;;;;;;2.70;1.60;;;;;;;23.26;60.30;96779.88;5015523;28;20033;-79
2022/07/11 11:26:09;;;;;;;5.00;2.45;;;;;;;22.74;60.64;96778.63;5032316;28;20079;-78
2022/07/11 11:28:35;;;;;;;3.85;1.90;;;;;;;22.56;64.83;96784.78;5032541;28;20083;-78
2022/07/11 11:31:06;;;;;;;3.70;1.65;;;;;;;22.66;62.91;96779.72;5032039;28;20044;-78
2022/07/11 11:33:35;;;;;;;3.85;2.10;;;;;;;23.17;59.25;96789.31;5031975;28;20406;-79
2022/07/11 11:36:05;;;;;;;3.97;2.10;;;;;;;23.32;59.89;96783.53;5033363;28;20038;-79
2022/07/11 11:38:39;;;;;;;2.92;1.80;;;;;;;22.96;65.74;96776.34;5032375;28;20086;-79